createdAt,value
2023-01-20T00:01:46.909Z,0.20
2023-01-20T00:04:15.241Z,2.95
2023-01-20T00:06:42.399Z,0.55
2023-01-20T00:09:16.084Z,0.20
2023-01-20T00:11:43.159Z,0.82
2023-01-20T00:14:10.564Z,1.00
2023-01-20T00:16:37.701Z,1.23
2023-01-20T00:19:04.665Z,0.65
2023-01-20T00:21:31.586Z,0.60
2023-01-20T00:23:58.606Z,0.55
2023-01-20T00:26:34.533Z,0.38
2023-01-20T00:29:01.502Z,0.20
2023-01-20T00:31:30.957Z,0.70
2023-01-20T00:34:00.090Z,1.23
2023-01-20T00:36:29.002Z,1.92
2023-01-20T00:38:56.085Z,1.92
2023-01-20T00:41:23.826Z,2.15
2023-01-20T00:43:58.671Z,0.40
2023-01-20T00:46:25.677Z,1.33
2023-01-20T00:48:52.692Z,1.92
2023-01-20T00:51:20.085Z,1.88
2023-01-20T00:53:48.369Z,1.35
2023-01-20T00:56:15.363Z,1.83
2023-01-20T00:58:45.555Z,0.93
2023-01-20T01:01:13.383Z,0.98
2023-01-20T01:03:40.456Z,1.55
2023-01-20T01:06:09.742Z,0.45
2023-01-20T01:08:36.791Z,2.78
2023-01-20T01:11:04.579Z,1.58
2023-01-20T01:13:45.177Z,1.48
2023-01-20T01:16:14.447Z,1.87
2023-01-20T01:18:42.315Z,0.45
2023-01-20T01:21:12.356Z,0.75
2023-01-20T01:23:39.327Z,0.75
2023-01-20T01:26:06.484Z,0.22
2023-01-20T01:28:33.534Z,0.82
2023-01-20T01:31:04.673Z,1.35
2023-01-20T01:33:32.596Z,0.70
2023-01-20T01:36:01.522Z,0.85
2023-01-20T01:38:29.519Z,1.55
2023-01-20T01:40:57.012Z,2.22
2023-01-20T01:43:26.527Z,0.75
2023-01-20T01:45:53.567Z,0.47
2023-01-20T01:48:46.799Z,0.98
2023-01-20T01:51:23.705Z,1.52
2023-01-20T01:53:57.589Z,0.47
2023-01-20T01:56:26.821Z,0.90
2023-01-20T01:58:57.323Z,1.23
2023-01-20T02:01:25.834Z,1.83
2023-01-20T02:03:59.955Z,2.00
2023-01-20T02:06:32.756Z,0.75
2023-01-20T02:09:01.726Z,0.45
2023-01-20T02:11:31.914Z,3.20
2023-01-20T02:13:59.467Z,1.92
2023-01-20T02:17:29.095Z,4.32
2023-01-20T02:20:55.512Z,1.23
2023-01-20T02:24:24.385Z,0.73
2023-01-20T02:27:14.722Z,0.75
2023-01-20T02:30:19.210Z,0.95
2023-01-20T02:33:27.660Z,0.60
2023-01-20T02:36:10.055Z,3.50
2023-01-20T02:39:13.381Z,0.63
2023-01-20T03:12:55.931Z,1.63
2023-01-20T03:15:27.944Z,0.88
2023-01-20T03:17:54.899Z,0.90
2023-01-20T03:20:21.904Z,1.83
2023-01-20T03:22:49.715Z,2.03
2023-01-20T03:25:19.099Z,2.58
2023-01-20T03:27:46.192Z,6.80
2023-01-20T03:30:15.429Z,1.23
2023-01-20T03:32:46.104Z,2.40
2023-01-20T03:35:16.664Z,11.77
2023-01-20T03:37:44.820Z,1.85
2023-01-20T03:40:13.199Z,1.13
2023-01-20T03:42:52.887Z,6.60
2023-01-20T03:46:03.375Z,5.60
2023-01-20T03:48:45.063Z,3.05
2023-01-20T03:51:26.043Z,3.97
2023-01-20T03:53:58.470Z,3.47
2023-01-20T03:57:04.659Z,3.72
2023-01-20T03:59:35.834Z,1.67
2023-01-20T04:02:06.742Z,3.25
2023-01-20T04:04:37.310Z,2.05
2023-01-20T04:07:07.079Z,3.47
2023-01-20T04:09:39.666Z,2.00
2023-01-20T04:12:07.351Z,2.55
2023-01-20T04:14:37.291Z,3.35
2023-01-20T04:17:05.616Z,2.88
2023-01-20T04:19:32.800Z,2.65
2023-01-20T04:22:17.080Z,1.73
2023-01-20T04:24:51.810Z,49.90
2023-01-20T04:27:18.748Z,4.00
2023-01-20T04:29:45.690Z,2.10
2023-01-20T04:34:56.000Z,2.67
2023-01-20T04:37:22.991Z,3.13
2023-01-20T04:39:49.914Z,3.58
2023-01-20T04:42:16.916Z,2.38
2023-01-20T04:44:43.895Z,5.00
2023-01-20T04:47:10.879Z,3.15
2023-01-20T04:49:37.959Z,6.47
2023-01-20T04:52:05.053Z,3.40
2023-01-20T04:54:32.106Z,4.55
2023-01-20T04:56:59.074Z,4.18
2023-01-20T04:59:26.088Z,2.00
2023-01-20T05:01:53.170Z,6.75
2023-01-20T05:04:20.442Z,7.40
2023-01-20T05:06:47.453Z,5.72
2023-01-20T05:09:15.919Z,5.15
2023-01-20T05:11:43.935Z,6.40
2023-01-20T05:14:14.050Z,4.43
2023-01-20T05:16:41.188Z,2.60
2023-01-20T05:19:08.152Z,4.65
2023-01-20T05:21:35.756Z,4.03
2023-01-20T05:24:02.857Z,5.68
2023-01-20T05:26:29.892Z,3.78
2023-01-20T05:28:56.909Z,4.95
2023-01-20T05:31:24.011Z,6.35
2023-01-20T05:33:51.224Z,4.25
2023-01-20T05:36:18.173Z,4.68
2023-01-20T05:38:45.152Z,4.88
2023-01-20T05:41:12.585Z,7.55
2023-01-20T05:43:39.585Z,11.18
2023-01-20T05:46:06.988Z,6.00
2023-01-20T05:48:34.025Z,9.27
2023-01-20T05:51:01.039Z,5.00
2023-01-20T05:53:43.100Z,5.70
2023-01-20T05:56:12.969Z,9.65
2023-01-20T05:58:40.073Z,6.47
2023-01-20T06:01:23.446Z,7.35
2023-01-20T06:03:50.596Z,12.20
2023-01-20T06:06:18.510Z,7.47
2023-01-20T06:08:46.148Z,7.38
2023-01-20T06:11:25.277Z,12.40
2023-01-20T06:13:52.319Z,8.02
2023-01-20T06:16:20.020Z,3.83
2023-01-20T06:18:47.319Z,6.97
2023-01-20T06:21:14.293Z,8.88
2023-01-20T06:23:42.061Z,6.82
2023-01-20T06:26:12.616Z,7.47
2023-01-20T06:28:40.020Z,9.68
2023-01-20T06:31:13.268Z,7.20
2023-01-20T06:33:40.608Z,6.50
2023-01-20T06:36:09.300Z,6.10
2023-01-20T06:38:36.362Z,9.98
2023-01-20T06:41:07.252Z,8.02
2023-01-20T06:43:35.630Z,14.77
2023-01-20T06:46:06.603Z,16.45
2023-01-20T06:48:34.329Z,9.18
2023-01-20T06:51:02.856Z,12.52
2023-01-20T06:53:29.874Z,18.05
2023-01-20T06:55:58.191Z,16.77
2023-01-20T06:58:27.395Z,9.13
2023-01-20T07:00:56.169Z,12.15
2023-01-20T07:03:30.183Z,16.98
2023-01-20T07:06:00.914Z,11.35
2023-01-20T07:08:28.653Z,7.90
2023-01-20T07:10:56.113Z,11.20
2023-01-20T07:13:23.467Z,15.57
2023-01-20T07:15:50.480Z,18.90
2023-01-20T07:18:17.462Z,10.30
2023-01-20T07:20:44.562Z,13.27
2023-01-20T07:23:11.852Z,13.95
2023-01-20T07:25:39.676Z,18.33
2023-01-20T07:28:06.660Z,13.60
2023-01-20T07:30:33.986Z,15.52
2023-01-20T07:33:01.011Z,9.65
2023-01-20T07:35:28.086Z,13.15
2023-01-20T07:37:55.781Z,5.55
2023-01-20T07:40:22.813Z,7.22
2023-01-20T07:42:49.831Z,8.23
2023-01-20T07:45:17.245Z,9.27
2023-01-20T07:47:44.472Z,5.45
2023-01-20T07:50:11.511Z,6.88
2023-01-20T07:52:38.532Z,6.43
2023-01-20T07:55:06.616Z,7.68
2023-01-20T07:57:33.807Z,8.75
2023-01-20T08:00:00.916Z,11.43
2023-01-20T08:02:27.856Z,13.77
2023-01-20T08:04:54.857Z,11.30
2023-01-20T08:07:21.816Z,12.05
2023-01-20T08:09:50.288Z,8.52
2023-01-20T08:12:17.219Z,7.30
2023-01-20T08:14:45.751Z,6.25
2023-01-20T08:17:13.550Z,13.27
2023-01-20T08:19:40.551Z,10.00
2023-01-20T08:22:07.694Z,7.45
2023-01-20T08:24:34.860Z,10.63
2023-01-20T08:27:01.926Z,6.10
2023-01-20T08:29:30.134Z,7.18
2023-01-20T08:32:01.369Z,9.10
2023-01-20T08:34:28.890Z,4.53
2023-01-20T08:36:57.596Z,7.18
2023-01-20T08:39:24.949Z,5.65
2023-01-20T08:41:52.291Z,6.50
2023-01-20T08:44:20.645Z,5.85
2023-01-20T08:46:47.768Z,9.10
2023-01-20T08:49:16.987Z,8.15
2023-01-20T08:51:45.601Z,4.70
2023-01-20T08:54:12.816Z,12.48
2023-01-20T08:56:39.807Z,12.77
2023-01-20T08:59:07.341Z,6.38
2023-01-20T09:01:39.041Z,9.57
2023-01-20T09:04:07.629Z,8.32
2023-01-20T09:06:44.264Z,8.75
2023-01-20T09:09:12.342Z,10.52
2023-01-20T09:11:40.172Z,10.18
2023-01-20T09:14:07.350Z,11.25
2023-01-20T09:16:34.473Z,11.52
2023-01-20T09:19:01.547Z,7.07
2023-01-20T09:21:28.858Z,12.10
2023-01-20T09:23:55.979Z,12.75
2023-01-20T09:26:35.482Z,7.32
2023-01-20T09:29:10.066Z,13.95
2023-01-20T09:31:44.800Z,7.38
2023-01-20T09:34:21.786Z,5.80
2023-01-20T09:36:56.849Z,5.82
2023-01-20T09:39:42.878Z,9.10
2023-01-20T09:43:17.786Z,6.93
2023-01-20T09:46:01.521Z,10.57
2023-01-20T09:49:01.611Z,14.63
2023-01-20T09:51:58.180Z,8.65
2023-01-20T09:54:33.555Z,8.70
2023-01-20T09:57:01.747Z,8.35
2023-01-20T09:59:37.993Z,7.57
2023-01-20T10:02:11.672Z,4.38
2023-01-20T10:04:47.733Z,5.25
2023-01-20T10:08:08.751Z,5.97
2023-01-20T10:10:46.465Z,7.17
2023-01-20T10:13:29.285Z,8.73
2023-01-20T10:15:57.323Z,4.03
2023-01-20T10:18:40.542Z,5.53
2023-01-20T10:21:18.209Z,8.20
2023-01-20T10:23:56.053Z,4.72
2023-01-20T10:26:48.835Z,3.22
2023-01-20T10:29:34.913Z,6.03
2023-01-20T10:32:07.739Z,5.07
2023-01-20T10:34:45.242Z,5.10
2023-01-20T10:37:13.070Z,5.22
2023-01-20T10:39:49.828Z,5.38
2023-01-20T10:42:18.358Z,2.42
2023-01-20T10:44:47.358Z,4.22
2023-01-20T10:47:27.994Z,7.47
2023-01-20T10:50:25.598Z,5.35
2023-01-20T10:53:11.802Z,10.02
2023-01-20T10:56:07.017Z,6.13
2023-01-20T10:58:36.906Z,5.43
2023-01-20T11:01:09.063Z,7.18
2023-01-20T11:03:41.081Z,7.10
2023-01-20T11:06:16.068Z,7.25
2023-01-20T11:08:44.398Z,7.50
2023-01-20T11:11:16.384Z,6.18
2023-01-20T11:13:43.636Z,8.75
2023-01-20T11:16:19.425Z,8.63
2023-01-20T11:19:03.987Z,6.43
2023-01-20T11:21:34.013Z,5.05
2023-01-20T11:24:01.041Z,3.72
2023-01-20T11:26:31.565Z,3.10
2023-01-20T11:29:22.710Z,3.83
2023-01-20T11:31:52.788Z,4.05
2023-01-20T11:34:28.857Z,2.42
2023-01-20T11:37:26.589Z,2.83
2023-01-20T11:40:02.064Z,1.75
2023-01-20T11:42:50.466Z,0.32
2023-01-20T11:45:37.606Z,4.45
2023-01-20T11:48:24.861Z,1.95
2023-01-20T11:50:57.693Z,6.25
2023-01-20T11:53:26.843Z,8.05
2023-01-20T11:56:06.177Z,0.60
2023-01-20T11:58:48.612Z,0.80
2023-01-20T12:01:49.575Z,1.00
2023-01-20T12:04:56.713Z,3.88
2023-01-20T12:07:37.603Z,1.30
2023-01-20T12:14:39.184Z,0.55
2023-01-20T12:25:24.113Z,1.02
2023-01-20T12:27:58.150Z,0.63
2023-01-20T12:30:38.587Z,0.30
2023-01-20T12:33:11.822Z,1.60
2023-01-20T12:40:22.100Z,0.52
2023-01-20T12:47:32.699Z,2.40
2023-01-20T12:50:46.138Z,0.73
2023-01-20T12:58:06.509Z,0.55
2023-01-20T13:00:59.344Z,2.97
2023-01-20T13:08:25.232Z,2.65
2023-01-20T13:11:18.920Z,5.00
2023-01-20T13:14:09.379Z,5.15
2023-01-20T13:16:54.326Z,4.78
2023-01-20T13:19:37.472Z,3.30
2023-01-20T13:22:22.143Z,5.00
2023-01-20T13:24:54.432Z,5.47
2023-01-20T13:35:51.005Z,4.97
2023-01-20T13:38:31.115Z,5.68
2023-01-20T13:41:03.441Z,6.80
2023-01-20T14:04:34.325Z,2.63
2023-01-20T14:07:04.866Z,3.85
2023-01-20T14:09:32.030Z,5.37
2023-01-20T14:11:59.041Z,2.85
2023-01-20T14:19:33.766Z,3.67
2023-01-20T14:22:03.391Z,4.30
2023-01-20T14:24:35.956Z,5.47
2023-01-20T14:27:18.685Z,7.63
2023-01-20T14:29:47.505Z,7.25
2023-01-20T14:32:22.264Z,5.85
2023-01-20T14:34:50.301Z,1.75
2023-01-20T14:37:38.381Z,13.32
2023-01-20T14:40:23.830Z,6.63
2023-01-20T14:43:08.399Z,5.60
2023-01-20T14:45:37.260Z,11.30
2023-01-20T14:48:05.525Z,9.80
2023-01-20T14:50:32.638Z,5.63
2023-01-20T14:53:00.707Z,4.40
2023-01-20T14:55:32.720Z,4.80
2023-01-20T14:58:00.678Z,7.07
2023-01-20T15:00:30.653Z,4.97
2023-01-20T15:03:34.045Z,4.93
2023-01-20T15:06:20.809Z,9.23
2023-01-20T15:09:05.210Z,3.17
2023-01-20T15:11:33.771Z,8.15
2023-01-20T15:14:10.495Z,7.72
2023-01-20T15:16:46.899Z,4.70
2023-01-20T15:19:30.088Z,5.40
2023-01-20T15:22:16.701Z,5.57
2023-01-20T15:24:47.469Z,5.03
2023-01-20T15:27:23.450Z,4.53
2023-01-20T15:30:21.680Z,5.05
2023-01-20T15:32:49.460Z,3.80
2023-01-20T15:35:20.150Z,5.90
2023-01-20T15:37:47.414Z,3.67
2023-01-20T15:40:27.432Z,8.15
2023-01-20T15:42:55.006Z,3.10
2023-01-20T15:45:22.005Z,6.97
2023-01-20T15:47:49.961Z,8.52
2023-01-20T15:50:24.542Z,4.40
2023-01-20T15:52:51.596Z,6.53
2023-01-20T15:55:19.949Z,10.40
2023-01-20T15:57:51.635Z,8.05
2023-01-20T16:00:21.493Z,10.73
2023-01-20T16:02:48.810Z,11.20
2023-01-20T16:05:17.711Z,12.85
2023-01-20T16:07:47.483Z,12.95
2023-01-20T16:10:19.321Z,12.27
2023-01-20T16:12:46.859Z,11.63
2023-01-20T16:15:16.227Z,12.68
2023-01-20T16:17:43.541Z,10.80
2023-01-20T16:20:25.086Z,8.32
2023-01-20T16:22:52.534Z,15.15
2023-01-20T16:25:20.889Z,6.38
2023-01-20T16:27:48.088Z,8.15
2023-01-20T16:30:18.070Z,11.25
2023-01-20T16:32:46.603Z,5.57
2023-01-20T16:35:18.111Z,9.98
2023-01-20T16:40:19.401Z,7.95
2023-01-20T16:42:47.738Z,6.35
2023-01-20T16:45:29.025Z,4.57
2023-01-20T16:47:57.275Z,6.00
2023-01-20T16:50:28.064Z,8.02
2023-01-20T16:52:55.068Z,9.00
2023-01-20T16:55:22.434Z,8.80
2023-01-20T16:57:49.380Z,4.53
2023-01-20T17:00:19.017Z,8.20
2023-01-20T17:02:50.631Z,8.32
2023-01-20T17:05:22.512Z,6.35
2023-01-20T17:07:50.596Z,16.33
2023-01-20T17:10:18.398Z,7.75
2023-01-20T17:12:48.738Z,4.00
2023-01-20T17:15:15.983Z,8.63
2023-01-20T17:17:43.471Z,12.20
2023-01-20T17:20:11.034Z,18.45
2023-01-20T17:22:39.645Z,14.48
2023-01-20T17:25:08.442Z,15.00
2023-01-20T17:27:36.764Z,16.13
2023-01-20T17:30:05.010Z,17.23
2023-01-20T17:32:32.021Z,17.08
2023-01-20T17:34:59.121Z,16.92
2023-01-20T17:37:26.122Z,11.07
2023-01-20T17:39:53.081Z,13.73
2023-01-20T17:42:20.204Z,15.25
2023-01-20T17:44:47.260Z,6.78
2023-01-20T17:47:14.303Z,6.22
2023-01-20T17:49:41.266Z,7.57
2023-01-20T17:52:08.388Z,19.70
2023-01-20T17:54:35.560Z,31.52
2023-01-20T17:57:02.635Z,33.50
2023-01-20T17:59:29.690Z,20.27
2023-01-20T18:01:57.108Z,19.88
2023-01-20T18:04:24.182Z,22.13
2023-01-20T18:06:51.142Z,22.27
2023-01-20T18:09:18.372Z,28.65
2023-01-20T18:11:45.526Z,25.80
2023-01-20T18:14:12.827Z,16.27
2023-01-20T18:16:41.865Z,13.57
2023-01-20T18:19:14.144Z,17.35
2023-01-20T18:21:43.941Z,18.50
2023-01-20T18:24:12.030Z,11.35
2023-01-20T18:26:40.796Z,12.85
2023-01-20T18:29:17.642Z,18.30
2023-01-20T18:31:46.747Z,14.65
2023-01-20T18:34:15.941Z,16.70
2023-01-20T18:36:46.356Z,15.45
2023-01-20T18:39:16.237Z,10.60
2023-01-20T18:41:43.787Z,13.27
2023-01-20T18:44:11.468Z,7.05
2023-01-20T18:46:39.125Z,14.98
2023-01-20T18:49:09.427Z,9.57
2023-01-20T18:51:36.946Z,8.87
2023-01-20T18:54:10.604Z,10.88
2023-01-20T18:56:37.811Z,12.95
2023-01-20T18:59:06.448Z,17.25
2023-01-20T19:01:36.610Z,7.63
2023-01-20T19:04:04.769Z,7.35
2023-01-20T19:06:36.076Z,7.50
2023-01-20T19:09:04.589Z,7.82
2023-01-20T19:11:34.636Z,8.30
2023-01-20T19:14:02.483Z,8.93
2023-01-20T19:16:40.424Z,7.25
2023-01-20T19:19:08.184Z,6.30
2023-01-20T19:21:36.697Z,8.13
2023-01-20T19:24:07.280Z,7.05
2023-01-20T19:26:36.381Z,5.17
2023-01-20T19:29:10.340Z,11.93
2023-01-20T19:31:39.291Z,9.70
2023-01-20T19:34:07.488Z,11.13
2023-01-20T19:36:35.269Z,13.45
2023-01-20T19:39:02.401Z,12.18
2023-01-20T19:41:33.421Z,12.00
2023-01-20T19:44:03.341Z,8.63
2023-01-20T19:46:33.251Z,7.55
2023-01-20T19:49:02.490Z,11.88
2023-01-20T19:51:31.725Z,10.20
2023-01-20T19:54:01.705Z,10.27
2023-01-20T19:56:31.209Z,11.85
2023-01-20T19:59:00.934Z,12.38
2023-01-20T20:01:33.299Z,11.18
2023-01-20T20:04:05.722Z,11.95
2023-01-20T20:06:45.631Z,9.05
2023-01-20T20:09:26.334Z,11.32
2023-01-20T20:11:54.073Z,10.02
2023-01-20T20:14:23.061Z,9.50
2023-01-20T20:16:50.797Z,9.63
2023-01-20T20:19:19.532Z,9.85
2023-01-20T20:21:46.832Z,14.48
2023-01-20T20:24:15.484Z,7.07
2023-01-20T20:26:48.234Z,11.82
2023-01-20T20:29:18.610Z,12.60
2023-01-20T20:31:45.666Z,9.98
2023-01-20T20:34:18.775Z,8.93
2023-01-20T20:36:46.233Z,6.32
2023-01-20T20:39:15.357Z,5.50
2023-01-20T20:41:42.787Z,9.20
2023-01-20T20:44:11.383Z,8.80
2023-01-20T20:46:38.472Z,6.55
2023-01-20T20:49:05.558Z,9.20
2023-01-20T20:51:34.271Z,6.32
2023-01-20T20:54:02.861Z,6.93
2023-01-20T20:56:33.861Z,5.90
2023-01-20T20:59:03.375Z,10.80
2023-01-20T21:01:33.256Z,4.47
2023-01-20T21:04:00.873Z,11.10
2023-01-20T21:06:28.562Z,11.13
2023-01-20T21:08:55.704Z,11.10
2023-01-20T21:11:24.233Z,8.38
2023-01-20T21:13:51.882Z,7.97
2023-01-20T21:16:22.305Z,6.13
2023-01-20T21:18:50.885Z,6.00
2023-01-20T21:21:19.579Z,5.15
2023-01-20T21:23:55.212Z,7.70
2023-01-20T21:26:23.338Z,7.80
2023-01-20T21:28:50.550Z,8.00
2023-01-20T21:31:21.148Z,6.97
2023-01-20T21:33:53.662Z,6.13
2023-01-20T21:36:21.572Z,6.97
2023-01-20T21:38:48.621Z,5.93
2023-01-20T21:41:16.538Z,5.60
2023-01-20T21:44:04.060Z,4.82
2023-01-20T21:46:33.273Z,6.07
2023-01-20T21:49:18.820Z,5.78
2023-01-20T21:52:04.323Z,7.60
2023-01-20T21:54:32.768Z,5.97
2023-01-20T21:57:01.595Z,6.47
2023-01-20T21:59:28.549Z,8.65
2023-01-20T22:01:55.518Z,9.68
2023-01-20T22:04:22.471Z,8.07
2023-01-20T22:06:49.476Z,7.63
2023-01-20T22:09:16.463Z,7.70
2023-01-20T22:11:43.435Z,8.82
2023-01-20T22:14:10.597Z,9.60
2023-01-20T22:16:37.577Z,14.63
2023-01-20T22:19:04.964Z,12.05
2023-01-20T22:21:33.087Z,10.75
2023-01-20T22:24:02.321Z,11.80
2023-01-20T22:26:38.441Z,13.40
2023-01-20T22:29:05.435Z,11.05
2023-01-20T22:31:34.350Z,10.20
2023-01-20T22:34:06.385Z,12.50
2023-01-20T22:36:34.153Z,15.25
2023-01-20T22:39:01.486Z,13.75
2023-01-20T22:41:28.629Z,11.07
2023-01-20T22:43:55.967Z,12.82
2023-01-20T22:46:24.280Z,10.07
2023-01-20T22:48:51.284Z,12.10
2023-01-20T22:51:23.174Z,12.35
2023-01-20T22:53:53.537Z,12.43
2023-01-20T22:56:23.320Z,17.15
2023-01-20T22:58:50.312Z,17.70
2023-01-20T23:01:20.080Z,21.95
2023-01-20T23:03:47.619Z,17.90
2023-01-20T23:06:15.387Z,17.02
2023-01-20T23:08:42.319Z,17.08
2023-01-20T23:11:13.391Z,21.05
2023-01-20T23:13:41.005Z,17.75
2023-01-20T23:16:13.328Z,22.17
2023-01-20T23:18:40.247Z,17.10
2023-01-20T23:21:07.331Z,18.23
2023-01-20T23:23:34.677Z,18.42
2023-01-20T23:26:03.307Z,18.92
2023-01-20T23:28:30.621Z,18.05
2023-01-20T23:31:02.883Z,17.98
2023-01-20T23:33:30.129Z,25.80
2023-01-20T23:36:03.853Z,19.48
2023-01-20T23:38:31.034Z,20.90
2023-01-20T23:40:58.219Z,21.38
2023-01-20T23:43:25.159Z,13.70
2023-01-20T23:45:52.227Z,16.98
2023-01-20T23:48:19.294Z,15.05
2023-01-20T23:50:46.258Z,13.77
2023-01-20T23:53:13.303Z,10.75
2023-01-20T23:55:40.226Z,12.30
2023-01-20T23:58:07.185Z,11.98
